Time;durP1;ratioP1;P1;durP2;ratioP2;P2;SDS_P1;SDS_P2;PMS_P1;PMS_P2;Temp;Humidity;BMP_temperature;BMP_pressure;BME280_temperature;BME280_humidity;BME280_pressure;Samples;Min_cycle;Max_cycle;Signal;HPM_P1;HPM_P2
2024/01/12 00:00:27;;;;;;;53.80;20.03;;;;;;;;;;4904041;29;20188;-50
2024/01/12 00:02:53;;;;;;;48.13;18.33;;;;;;;;;;4895066;29;20617;-50
2024/01/12 00:05:19;;;;;;;51.67;18.63;;;;;;;;;;4894993;29;20240;-50
2024/01/12 00:07:45;;;;;;;53.43;19.30;;;;;;;;;;4906200;29;20196;-51
2024/01/12 00:10:11;;;;;;;47.80;18.77;;;;;;;;;;4906055;29;20843;-51
2024/01/12 00:12:37;;;;;;;46.37;17.57;;;;;;;;;;4902688;29;20893;-51
2024/01/12 00:15:05;;;;;;;48.63;18.17;;;;;;;;;;4894502;29;20784;-54
2024/01/12 00:17:31;;;;;;;42.63;17.23;;;;;;;;;;4902482;29;20476;-49
2024/01/12 00:19:57;;;;;;;53.87;19.67;;;;;;;;;;4902422;29;20512;-54
2024/01/12 00:22:23;;;;;;;46.23;18.00;;;;;;;;;;4910203;29;20456;-50
2024/01/12 00:24:49;;;;;;;48.13;17.90;;;;;;;;;;4906578;29;20442;-51
2024/01/12 00:27:15;;;;;;;45.73;16.67;;;;;;;;;;4905150;29;20722;-52
2024/01/12 00:29:41;;;;;;;60.50;17.27;;;;;;;;;;4902482;29;20728;-51
2024/01/12 00:32:07;;;;;;;43.83;16.80;;;;;;;;;;4902539;29;20425;-53
2024/01/12 00:34:33;;;;;;;48.03;17.80;;;;;;;;;;4904487;29;20475;-51
2024/01/12 00:37:00;;;;;;;47.20;17.40;;;;;;;;;;4899267;29;20718;-49
2024/01/12 00:39:26;;;;;;;49.30;18.23;;;;;;;;;;4904013;29;20212;-50
2024/01/12 00:41:52;;;;;;;44.17;17.80;;;;;;;;;;4905691;29;20416;-50
2024/01/12 00:44:18;;;;;;;53.40;17.40;;;;;;;;;;4912418;29;20805;-51
2024/01/12 00:46:45;;;;;;;46.07;17.13;;;;;;;;;;4898105;29;20436;-51
2024/01/12 00:49:11;;;;;;;46.93;16.73;;;;;;;;;;4913409;29;20844;-53
2024/01/12 00:51:37;;;;;;;44.60;16.73;;;;;;;;;;4905515;29;20487;-53
2024/01/12 00:54:04;;;;;;;49.37;15.90;;;;;;;;;;4913272;29;20940;-49
2024/01/12 00:56:30;;;;;;;48.57;16.53;;;;;;;;;;4902323;29;20215;-55
2024/01/12 00:58:56;;;;;;;54.83;18.03;;;;;;;;;;4894452;29;20795;-52
2024/01/12 01:01:22;;;;;;;43.60;17.00;;;;;;;;;;4895769;29;20240;-50
2024/01/12 01:03:48;;;;;;;49.03;17.37;;;;;;;;;;4908703;29;20185;-49
2024/01/12 01:06:14;;;;;;;51.20;17.33;;;;;;;;;;4909110;29;20470;-50
2024/01/12 01:08:40;;;;;;;44.83;17.03;;;;;;;;;;4901535;29;20417;-53
2024/01/12 01:11:06;;;;;;;44.23;15.93;;;;;;;;;;4909222;29;20608;-51
2024/01/12 01:13:35;;;;;;;42.63;17.30;;;;;;;;;;4910404;29;20193;-50
2024/01/12 01:16:02;;;;;;;45.60;16.50;;;;;;;;;;4901373;29;20296;-51
2024/01/12 01:18:30;;;;;;;44.17;15.30;;;;;;;;;;4904158;29;20480;-50
2024/01/12 01:20:57;;;;;;;39.50;15.13;;;;;;;;;;4899661;29;20452;-50
2024/01/12 01:23:23;;;;;;;43.13;15.77;;;;;;;;;;4914510;29;20424;-50
2024/01/12 01:25:49;;;;;;;41.13;15.77;;;;;;;;;;4916015;29;20565;-53
2024/01/12 01:28:15;;;;;;;41.00;15.30;;;;;;;;;;4908484;29;20428;-51
2024/01/12 01:30:41;;;;;;;39.47;15.40;;;;;;;;;;4909271;29;20514;-52
2024/01/12 01:33:07;;;;;;;38.50;15.73;;;;;;;;;;4916706;29;20188;-53
2024/01/12 01:35:33;;;;;;;41.27;15.23;;;;;;;;;;4915685;29;20455;-52
2024/01/12 01:37:59;;;;;;;39.43;14.30;;;;;;;;;;4910581;29;20220;-53
2024/01/12 01:40:25;;;;;;;42.37;14.97;;;;;;;;;;4897601;29;20959;-51
2024/01/12 01:42:51;;;;;;;42.37;15.40;;;;;;;;;;4904132;29;20188;-49
2024/01/12 01:45:17;;;;;;;38.87;14.60;;;;;;;;;;4912906;29;20420;-51
2024/01/12 01:47:43;;;;;;;37.10;13.80;;;;;;;;;;4916505;29;20220;-52
2024/01/12 01:50:12;;;;;;;38.17;13.97;;;;;;;;;;4901187;29;20264;-51
2024/01/12 01:52:39;;;;;;;40.03;14.00;;;;;;;;;;4901203;29;20445;-50
2024/01/12 01:55:05;;;;;;;41.90;13.87;;;;;;;;;;4907978;29;20420;-51
2024/01/12 01:57:33;;;;;;;36.67;15.10;;;;;;;;;;4916222;29;20481;-53
2024/01/12 01:59:59;;;;;;;39.20;14.97;;;;;;;;;;4916588;29;20428;-52
2024/01/12 02:02:25;;;;;;;41.77;14.57;;;;;;;;;;4906803;29;20879;-56
2024/01/12 02:04:52;;;;;;;38.47;13.33;;;;;;;;;;4904683;29;20427;-55
2024/01/12 02:07:18;;;;;;;35.70;13.13;;;;;;;;;;4904913;29;20472;-52
2024/01/12 02:09:44;;;;;;;37.80;14.03;;;;;;;;;;4901439;29;20482;-55
2024/01/12 02:12:10;;;;;;;38.13;13.43;;;;;;;;;;4916252;29;20196;-54
2024/01/12 02:14:37;;;;;;;33.47;12.57;;;;;;;;;;4904331;29;20429;-53
2024/01/12 02:17:03;;;;;;;32.37;12.17;;;;;;;;;;4903779;29;20711;-51
2024/01/12 02:19:29;;;;;;;34.53;13.53;;;;;;;;;;4916071;29;20514;-54
2024/01/12 02:21:55;;;;;;;28.77;11.70;;;;;;;;;;4910433;29;20534;-54
2024/01/12 02:24:21;;;;;;;31.17;12.40;;;;;;;;;;4913222;29;20333;-52
2024/01/12 02:26:47;;;;;;;35.70;12.93;;;;;;;;;;4900770;29;20625;-53
2024/01/12 02:29:13;;;;;;;33.83;12.70;;;;;;;;;;4908495;29;20247;-53
2024/01/12 02:31:40;;;;;;;32.63;12.47;;;;;;;;;;4897177;29;20428;-54
2024/01/12 02:34:07;;;;;;;39.47;13.80;;;;;;;;;;4904363;29;20717;-53
2024/01/12 02:36:33;;;;;;;37.67;14.67;;;;;;;;;;4904175;29;20472;-52
2024/01/12 02:38:59;;;;;;;37.23;14.00;;;;;;;;;;4902602;29;20412;-53
2024/01/12 02:41:25;;;;;;;41.17;14.67;;;;;;;;;;4898481;29;20247;-51
2024/01/12 02:43:52;;;;;;;44.07;14.97;;;;;;;;;;4909744;29;20420;-53
2024/01/12 02:46:18;;;;;;;37.10;14.27;;;;;;;;;;4906410;29;20446;-53
2024/01/12 02:48:44;;;;;;;42.30;14.33;;;;;;;;;;4908523;29;20424;-53
2024/01/12 02:51:10;;;;;;;32.40;12.67;;;;;;;;;;4907595;29;20888;-56
2024/01/12 02:53:36;;;;;;;37.23;13.40;;;;;;;;;;4915339;29;20424;-51
2024/01/12 02:56:02;;;;;;;32.57;12.90;;;;;;;;;;4915018;29;20203;-53
2024/01/12 02:58:28;;;;;;;36.70;13.33;;;;;;;;;;4898205;29;20212;-53
2024/01/12 03:00:54;;;;;;;37.10;13.73;;;;;;;;;;4910227;29;20191;-54
2024/01/12 03:03:20;;;;;;;32.93;12.37;;;;;;;;;;4904051;29;20209;-53
2024/01/12 03:05:46;;;;;;;32.70;12.07;;;;;;;;;;4903394;29;20699;-51
2024/01/12 03:08:12;;;;;;;33.93;12.20;;;;;;;;;;4904154;29;20417;-54
2024/01/12 03:10:38;;;;;;;32.50;12.93;;;;;;;;;;4907531;29;20223;-52
2024/01/12 03:13:04;;;;;;;35.80;12.07;;;;;;;;;;4908682;29;20453;-54
2024/01/12 03:15:30;;;;;;;35.93;12.90;;;;;;;;;;4903131;29;20199;-54
2024/01/12 03:17:59;;;;;;;32.30;12.57;;;;;;;;;;4895496;29;20747;-52
2024/01/12 03:20:25;;;;;;;32.63;11.63;;;;;;;;;;4911409;29;20188;-50
2024/01/12 03:22:51;;;;;;;30.73;12.40;;;;;;;;;;4902433;29;20432;-54
2024/01/12 03:25:17;;;;;;;28.57;11.63;;;;;;;;;;4895472;29;20438;-54
2024/01/12 03:27:43;;;;;;;29.03;10.97;;;;;;;;;;4903597;29;20484;-51
2024/01/12 03:30:10;;;;;;;32.70;12.03;;;;;;;;;;4911176;29;20423;-54
2024/01/12 03:32:36;;;;;;;26.33;11.03;;;;;;;;;;4911937;29;20893;-54
2024/01/12 03:35:03;;;;;;;31.07;11.70;;;;;;;;;;4894859;29;20563;-52
2024/01/12 03:37:29;;;;;;;31.73;11.63;;;;;;;;;;4903100;29;20274;-53
2024/01/12 03:39:55;;;;;;;28.83;11.23;;;;;;;;;;4908947;29;20412;-53
2024/01/12 03:42:21;;;;;;;30.20;12.03;;;;;;;;;;4914269;29;20511;-51
2024/01/12 03:44:47;;;;;;;29.10;11.20;;;;;;;;;;4913442;29;20196;-49
2024/01/12 03:47:13;;;;;;;33.17;12.53;;;;;;;;;;4906641;29;20216;-49
2024/01/12 03:49:39;;;;;;;28.10;11.80;;;;;;;;;;4898555;29;20798;-49
2024/01/12 03:52:06;;;;;;;27.83;11.43;;;;;;;;;;4921404;29;20202;-49
2024/01/12 03:54:32;;;;;;;26.57;10.97;;;;;;;;;;4895585;29;21067;-48
2024/01/12 03:56:58;;;;;;;31.07;11.67;;;;;;;;;;4908585;29;20570;-50
2024/01/12 03:59:24;;;;;;;34.20;10.30;;;;;;;;;;4914209;29;20234;-49
2024/01/12 04:01:50;;;;;;;26.87;10.47;;;;;;;;;;4906322;29;20187;-50
2024/01/12 04:04:16;;;;;;;25.97;10.33;;;;;;;;;;4906196;29;20425;-53
2024/01/12 04:06:42;;;;;;;28.70;10.23;;;;;;;;;;4910115;29;20228;-51
2024/01/12 04:09:12;;;;;;;25.87;10.23;;;;;;;;;;4909994;29;20244;-51
2024/01/12 04:11:38;;;;;;;27.33;9.80;;;;;;;;;;4903084;29;20421;-49
2024/01/12 04:14:04;;;;;;;26.00;11.23;;;;;;;;;;4909225;29;20479;-51
2024/01/12 04:16:30;;;;;;;28.03;9.90;;;;;;;;;;4905553;29;20452;-54
2024/01/12 04:18:56;;;;;;;27.97;10.13;;;;;;;;;;4914008;29;20184;-53
2024/01/12 04:21:23;;;;;;;31.27;10.60;;;;;;;;;;4913664;29;20680;-51
2024/01/12 04:23:49;;;;;;;27.93;11.27;;;;;;;;;;4914036;29;20419;-52
2024/01/12 04:26:15;;;;;;;23.40;9.63;;;;;;;;;;4905468;29;20804;-55
2024/01/12 04:28:41;;;;;;;29.07;11.00;;;;;;;;;;4894798;29;20264;-50
2024/01/12 04:31:07;;;;;;;29.90;10.33;;;;;;;;;;4894858;29;20288;-51
2024/01/12 04:33:33;;;;;;;27.07;10.10;;;;;;;;;;4910377;29;20927;-53
2024/01/12 04:36:00;;;;;;;25.77;10.20;;;;;;;;;;4894369;29;20212;-48
2024/01/12 04:38:26;;;;;;;29.47;10.33;;;;;;;;;;4910241;29;20612;-51
2024/01/12 04:40:53;;;;;;;29.73;10.73;;;;;;;;;;4907724;29;20427;-50
2024/01/12 04:43:19;;;;;;;30.73;10.00;;;;;;;;;;4906019;29;20920;-50
2024/01/12 04:45:45;;;;;;;31.73;10.57;;;;;;;;;;4905425;29;20440;-50
2024/01/12 04:48:11;;;;;;;24.50;10.10;;;;;;;;;;4913880;29;20419;-52
2024/01/12 04:50:37;;;;;;;30.77;10.23;;;;;;;;;;4905658;29;20757;-52
2024/01/12 04:53:03;;;;;;;28.83;11.13;;;;;;;;;;4913458;29;20238;-54
2024/01/12 04:55:29;;;;;;;27.03;10.37;;;;;;;;;;4905711;29;20195;-55
2024/01/12 04:57:55;;;;;;;22.33;9.63;;;;;;;;;;4904270;29;20954;-54
2024/01/12 05:00:21;;;;;;;25.30;9.77;;;;;;;;;;4907097;29;20863;-50
2024/01/12 05:02:47;;;;;;;25.07;10.60;;;;;;;;;;4917229;29;20412;-50
2024/01/12 05:05:14;;;;;;;24.83;9.77;;;;;;;;;;4909264;29;20185;-54
2024/01/12 05:07:40;;;;;;;27.80;9.83;;;;;;;;;;4905910;29;20539;-51
2024/01/12 05:10:06;;;;;;;22.87;10.03;;;;;;;;;;4912823;29;20431;-52
2024/01/12 05:12:34;;;;;;;27.37;11.10;;;;;;;;;;4909038;29;20874;-50
2024/01/12 05:15:01;;;;;;;23.67;9.23;;;;;;;;;;4916749;29;20427;-49
2024/01/12 05:17:27;;;;;;;23.27;9.87;;;;;;;;;;4915093;29;20478;-52
2024/01/12 05:19:53;;;;;;;23.60;9.73;;;;;;;;;;4910898;29;20795;-52
2024/01/12 05:22:19;;;;;;;28.77;10.63;;;;;;;;;;4916832;29;20184;-51
2024/01/12 05:24:45;;;;;;;29.43;10.93;;;;;;;;;;4916741;29;20426;-53
2024/01/12 05:27:11;;;;;;;22.00;9.53;;;;;;;;;;4916869;29;20696;-48
2024/01/12 05:29:38;;;;;;;25.87;9.90;;;;;;;;;;4901091;29;20243;-49
2024/01/12 05:32:04;;;;;;;24.97;10.27;;;;;;;;;;4916926;29;20191;-49
2024/01/12 05:34:30;;;;;;;26.03;9.93;;;;;;;;;;4916358;29;20506;-51
2024/01/12 05:36:56;;;;;;;23.93;9.90;;;;;;;;;;4921936;29;20581;-50
2024/01/12 05:39:22;;;;;;;25.80;9.63;;;;;;;;;;4910530;29;20491;-48
2024/01/12 05:41:48;;;;;;;23.80;10.00;;;;;;;;;;4902010;29;20957;-50
2024/01/12 05:44:14;;;;;;;23.43;9.33;;;;;;;;;;4916674;29;20184;-51
2024/01/12 05:46:41;;;;;;;21.70;8.97;;;;;;;;;;4900645;29;20207;-49
2024/01/12 05:49:07;;;;;;;23.37;9.93;;;;;;;;;;4916580;29;20200;-48
2024/01/12 05:51:33;;;;;;;25.83;9.13;;;;;;;;;;4914073;29;20462;-49
2024/01/12 05:53:59;;;;;;;23.30;9.23;;;;;;;;;;4897587;29;20460;-50
2024/01/12 05:56:25;;;;;;;28.87;10.13;;;;;;;;;;4912575;29;20475;-51
2024/01/12 05:58:51;;;;;;;27.07;10.17;;;;;;;;;;4902072;29;20271;-49
2024/01/12 06:01:18;;;;;;;21.30;9.60;;;;;;;;;;4915973;29;20416;-48
2024/01/12 06:03:47;;;;;;;24.93;10.57;;;;;;;;;;4916328;29;20505;-50
2024/01/12 06:06:13;;;;;;;27.20;10.70;;;;;;;;;;4907630;29;20574;-49
2024/01/12 06:08:39;;;;;;;24.63;10.10;;;;;;;;;;4907471;29;20519;-51
2024/01/12 06:11:05;;;;;;;27.77;11.23;;;;;;;;;;4908003;29;20188;-50
2024/01/12 06:13:31;;;;;;;26.80;10.67;;;;;;;;;;4906117;29;20192;-52
2024/01/12 06:15:57;;;;;;;28.00;11.03;;;;;;;;;;4910147;29;20443;-52
2024/01/12 06:18:23;;;;;;;29.87;10.93;;;;;;;;;;4923722;29;20474;-52
2024/01/12 06:20:49;;;;;;;30.40;10.33;;;;;;;;;;4915840;29;20219;-52
2024/01/12 06:23:15;;;;;;;28.63;11.30;;;;;;;;;;4908257;29;20181;-53
2024/01/12 06:25:41;;;;;;;28.93;11.27;;;;;;;;;;4913398;29;20234;-52
2024/01/12 06:28:07;;;;;;;27.63;10.23;;;;;;;;;;4901291;29;20925;-55
2024/01/12 06:30:33;;;;;;;30.90;11.17;;;;;;;;;;4896908;29;20200;-52
2024/01/12 06:32:59;;;;;;;27.70;11.37;;;;;;;;;;4904563;29;20424;-54
2024/01/12 06:35:25;;;;;;;28.47;10.80;;;;;;;;;;4896106;29;20921;-51
2024/01/12 06:37:51;;;;;;;25.37;11.00;;;;;;;;;;4896853;29;20473;-50
2024/01/12 06:40:17;;;;;;;30.03;11.40;;;;;;;;;;4912435;29;20195;-52
2024/01/12 06:42:43;;;;;;;34.53;12.70;;;;;;;;;;4907743;29;20183;-50
2024/01/12 06:45:11;;;;;;;32.20;13.53;;;;;;;;;;4914872;29;20423;-51
2024/01/12 06:47:38;;;;;;;30.13;12.90;;;;;;;;;;4912735;29;20189;-51
2024/01/12 06:50:04;;;;;;;29.33;13.17;;;;;;;;;;4910256;29;20175;-50
2024/01/12 06:52:30;;;;;;;36.20;14.93;;;;;;;;;;4913354;29;20234;-49
2024/01/12 06:54:56;;;;;;;32.60;14.43;;;;;;;;;;4908644;29;20186;-53
2024/01/12 06:57:22;;;;;;;34.50;13.07;;;;;;;;;;4899098;29;20465;-50
2024/01/12 06:59:48;;;;;;;33.23;12.63;;;;;;;;;;4915187;29;20231;-50
2024/01/12 07:02:15;;;;;;;26.53;11.17;;;;;;;;;;4914861;29;20417;-49
2024/01/12 07:04:41;;;;;;;31.43;11.90;;;;;;;;;;4914164;29;20271;-52
2024/01/12 07:07:08;;;;;;;41.33;15.63;;;;;;;;;;4914516;29;20223;-52
2024/01/12 07:09:34;;;;;;;33.67;14.07;;;;;;;;;;4896864;29;20189;-51
2024/01/12 07:12:00;;;;;;;38.67;15.63;;;;;;;;;;4909312;29;20482;-49
2024/01/12 07:14:26;;;;;;;44.57;16.90;;;;;;;;;;4913235;29;20196;-52
2024/01/12 07:16:52;;;;;;;41.43;15.97;;;;;;;;;;4895163;29;20224;-53
2024/01/12 07:19:18;;;;;;;36.23;15.77;;;;;;;;;;4902657;29;20192;-53
2024/01/12 07:21:44;;;;;;;40.87;17.97;;;;;;;;;;4906682;29;20428;-50
2024/01/12 07:24:10;;;;;;;44.43;17.87;;;;;;;;;;4907001;29;20187;-51
2024/01/12 07:26:36;;;;;;;44.97;17.33;;;;;;;;;;4905807;29;20232;-51
2024/01/12 07:29:02;;;;;;;38.47;16.67;;;;;;;;;;4908502;29;20971;-52
2024/01/12 07:31:28;;;;;;;37.03;15.77;;;;;;;;;;4903116;29;20199;-48
2024/01/12 07:33:54;;;;;;;28.50;12.57;;;;;;;;;;4908279;29;20424;-51
2024/01/12 07:36:20;;;;;;;18.50;8.53;;;;;;;;;;4912730;29;20703;-51
2024/01/12 07:38:46;;;;;;;22.13;9.13;;;;;;;;;;4903247;29;20650;-51
2024/01/12 07:41:12;;;;;;;22.77;9.40;;;;;;;;;;4902474;29;20180;-51
2024/01/12 07:43:38;;;;;;;26.20;9.90;;;;;;;;;;4913741;29;20188;-50
2024/01/12 07:46:05;;;;;;;25.97;10.10;;;;;;;;;;4912329;29;20203;-50
2024/01/12 07:48:31;;;;;;;22.27;9.93;;;;;;;;;;4912988;29;20338;-50
2024/01/12 07:50:57;;;;;;;21.80;9.80;;;;;;;;;;4908557;29;20275;-50
2024/01/12 07:53:23;;;;;;;21.93;9.33;;;;;;;;;;4911127;29;20211;-49
2024/01/12 07:55:49;;;;;;;14.03;7.13;;;;;;;;;;4912660;29;20212;-49
2024/01/12 07:58:18;;;;;;;21.60;8.63;;;;;;;;;;4913681;29;20298;-50
2024/01/12 08:00:44;;;;;;;23.53;10.13;;;;;;;;;;4902301;29;20385;-52
2024/01/12 08:03:10;;;;;;;24.97;10.00;;;;;;;;;;4901455;29;20175;-51
2024/01/12 08:05:36;;;;;;;20.53;9.90;;;;;;;;;;4896620;29;20734;-49
2024/01/12 08:08:02;;;;;;;27.43;12.60;;;;;;;;;;4913115;29;20270;-48
2024/01/12 08:10:29;;;;;;;29.30;12.10;;;;;;;;;;4905356;29;20190;-50
2024/01/12 08:12:55;;;;;;;31.30;11.73;;;;;;;;;;4905255;29;20240;-49
2024/01/12 08:15:21;;;;;;;20.43;9.93;;;;;;;;;;4912162;29;20203;-48
2024/01/12 08:17:47;;;;;;;20.23;7.57;;;;;;;;;;4913120;29;20209;-49
2024/01/12 08:20:13;;;;;;;14.37;6.50;;;;;;;;;;4905068;29;20190;-50
2024/01/12 08:22:39;;;;;;;9.10;4.40;;;;;;;;;;4912655;29;20184;-49
2024/01/12 08:25:05;;;;;;;7.77;3.73;;;;;;;;;;4906225;29;20180;-48
2024/01/12 08:27:31;;;;;;;8.93;3.33;;;;;;;;;;4903756;29;20216;-51
2024/01/12 08:29:57;;;;;;;6.63;2.90;;;;;;;;;;4899787;29;20725;-49
2024/01/12 08:32:23;;;;;;;15.27;7.03;;;;;;;;;;4893984;29;20587;-50
2024/01/12 08:34:49;;;;;;;9.03;4.37;;;;;;;;;;4901106;29;20185;-52
2024/01/12 08:37:15;;;;;;;10.10;4.33;;;;;;;;;;4893327;29;20212;-50
2024/01/12 08:39:41;;;;;;;8.03;4.00;;;;;;;;;;4900491;29;20188;-53
2024/01/12 08:42:07;;;;;;;7.30;3.43;;;;;;;;;;4908206;29;20192;-50
2024/01/12 08:44:33;;;;;;;6.73;3.63;;;;;;;;;;4912060;29;20207;-50
2024/01/12 08:46:59;;;;;;;8.03;3.70;;;;;;;;;;4912644;29;20264;-48
2024/01/12 08:49:25;;;;;;;6.47;3.07;;;;;;;;;;4911818;29;20675;-51
2024/01/12 08:51:51;;;;;;;7.00;3.03;;;;;;;;;;4905894;29;20278;-50
2024/01/12 08:54:17;;;;;;;7.30;3.13;;;;;;;;;;4912619;29;20196;-50
2024/01/12 08:56:43;;;;;;;8.57;3.53;;;;;;;;;;4904247;29;20645;-48
2024/01/12 08:59:09;;;;;;;6.20;2.63;;;;;;;;;;4912805;29;20184;-49
2024/01/12 09:01:35;;;;;;;5.53;2.53;;;;;;;;;;4904658;29;20199;-50
2024/01/12 09:04:01;;;;;;;6.20;2.83;;;;;;;;;;4906926;29;20184;-49
2024/01/12 09:06:28;;;;;;;8.10;2.47;;;;;;;;;;4901685;29;20238;-49
2024/01/12 09:08:54;;;;;;;8.17;3.00;;;;;;;;;;4912569;29;20551;-49
2024/01/12 09:11:20;;;;;;;6.30;3.27;;;;;;;;;;4904255;29;20200;-49
2024/01/12 09:13:47;;;;;;;7.00;3.00;;;;;;;;;;4905302;29;20191;-49
2024/01/12 09:16:13;;;;;;;9.27;3.10;;;;;;;;;;4904715;29;20767;-51
2024/01/12 09:18:39;;;;;;;8.23;3.30;;;;;;;;;;4901253;29;20279;-49
2024/01/12 09:21:05;;;;;;;8.27;3.60;;;;;;;;;;4901333;29;20181;-48
2024/01/12 09:23:31;;;;;;;10.00;4.10;;;;;;;;;;4895084;29;20211;-52
2024/01/12 09:25:57;;;;;;;11.53;4.47;;;;;;;;;;4903930;29;20291;-51
2024/01/12 09:28:23;;;;;;;9.30;4.63;;;;;;;;;;4904607;29;20204;-48
2024/01/12 09:30:49;;;;;;;11.60;4.87;;;;;;;;;;4900644;29;20193;-49
2024/01/12 09:33:15;;;;;;;9.87;3.90;;;;;;;;;;4893371;29;20184;-51
2024/01/12 09:35:41;;;;;;;11.90;5.17;;;;;;;;;;4911417;29;20239;-50
2024/01/12 09:38:07;;;;;;;10.03;4.23;;;;;;;;;;4912323;29;20563;-48
2024/01/12 09:40:34;;;;;;;9.47;4.30;;;;;;;;;;4904460;29;20199;-48
2024/01/12 09:43:07;;;;;;;38.10;14.83;;;;;;;;;;4913613;29;20210;-49
2024/01/12 09:45:34;;;;;;;13.30;6.13;;;;;;;;;;4904498;29;20648;-48
2024/01/12 09:48:00;;;;;;;13.60;5.70;;;;;;;;;;4910064;29;20220;-47
2024/01/12 09:50:26;;;;;;;13.47;6.13;;;;;;;;;;4915635;29;20184;-50
2024/01/12 09:52:52;;;;;;;13.00;5.67;;;;;;;;;;4907742;29;20196;-48
2024/01/12 09:55:18;;;;;;;19.47;7.77;;;;;;;;;;4914975;29;20195;-53
2024/01/12 09:57:44;;;;;;;11.73;5.50;;;;;;;;;;4904232;29;20240;-51
2024/01/12 10:00:12;;;;;;;14.30;5.90;;;;;;;;;;4911050;29;20236;-51
2024/01/12 10:02:38;;;;;;;13.93;5.83;;;;;;;;;;4899849;29;20192;-48
2024/01/12 10:05:04;;;;;;;12.60;6.17;;;;;;;;;;4908992;29;20636;-48
2024/01/12 10:07:30;;;;;;;13.33;5.70;;;;;;;;;;4905705;29;20696;-47
2024/01/12 10:09:56;;;;;;;12.63;6.13;;;;;;;;;;4915597;29;20216;-50
2024/01/12 10:12:22;;;;;;;14.60;5.80;;;;;;;;;;4899643;29;20192;-49
2024/01/12 10:14:58;;;;;;;17.50;7.00;;;;;;;;;;4910959;29;20278;-48
2024/01/12 10:17:24;;;;;;;21.93;7.67;;;;;;;;;;4911725;29;20207;-50
2024/01/12 10:19:50;;;;;;;16.77;6.60;;;;;;;;;;4902679;29;20184;-49
2024/01/12 10:22:16;;;;;;;20.50;8.33;;;;;;;;;;4904081;29;20176;-50
2024/01/12 10:24:43;;;;;;;18.27;7.63;;;;;;;;;;4895401;29;20204;-48
2024/01/12 10:27:09;;;;;;;15.10;6.87;;;;;;;;;;4896149;29;20299;-48
2024/01/12 10:29:38;;;;;;;21.00;7.73;;;;;;;;;;4898141;29;20196;-49
2024/01/12 10:32:04;;;;;;;16.73;7.67;;;;;;;;;;4909443;29;20199;-50
2024/01/12 10:34:33;;;;;;;17.73;7.40;;;;;;;;;;4912600;29;20576;-49
2024/01/12 10:36:59;;;;;;;18.77;7.37;;;;;;;;;;4909412;29;20230;-52
2024/01/12 10:39:27;;;;;;;17.50;8.23;;;;;;;;;;4904471;29;20193;-52
2024/01/12 10:41:53;;;;;;;16.33;7.50;;;;;;;;;;4910521;29;20188;-51
2024/01/12 10:44:20;;;;;;;21.27;8.80;;;;;;;;;;4903594;29;20202;-51
2024/01/12 10:46:47;;;;;;;17.97;7.90;;;;;;;;;;4910691;29;20551;-52
2024/01/12 10:49:21;;;;;;;13.67;6.40;;;;;;;;;;4910527;29;20188;-51
2024/01/12 10:51:50;;;;;;;13.47;6.43;;;;;;;;;;4914525;29;20196;-52
2024/01/12 10:54:20;;;;;;;13.87;6.50;;;;;;;;;;4907199;29;20705;-49
2024/01/12 10:56:46;;;;;;;12.83;6.37;;;;;;;;;;4902806;29;20247;-51
2024/01/12 10:59:12;;;;;;;15.73;6.93;;;;;;;;;;4910236;29;20182;-50
2024/01/12 11:01:38;;;;;;;17.13;7.17;;;;;;;;;;4906500;29;20196;-50
2024/01/12 11:04:05;;;;;;;18.63;8.47;;;;;;;;;;4906698;29;20299;-48
2024/01/12 11:06:31;;;;;;;15.93;7.90;;;;;;;;;;4903923;29;20227;-50
2024/01/12 11:08:57;;;;;;;16.83;7.83;;;;;;;;;;4900900;29;20537;-51
2024/01/12 11:11:27;;;;;;;16.77;7.90;;;;;;;;;;4906034;29;20203;-50
2024/01/12 11:13:54;;;;;;;18.03;8.73;;;;;;;;;;4907765;29;20259;-50
2024/01/12 11:16:21;;;;;;;14.03;7.07;;;;;;;;;;4905564;29;20206;-53
2024/01/12 11:18:47;;;;;;;22.77;11.03;;;;;;;;;;4910571;29;20597;-48
2024/01/12 11:21:13;;;;;;;27.43;12.13;;;;;;;;;;4902090;29;20671;-53
2024/01/12 11:23:42;;;;;;;30.10;12.57;;;;;;;;;;4913854;29;20323;-50
2024/01/12 11:26:09;;;;;;;27.47;11.83;;;;;;;;;;4913163;29;20789;-48
2024/01/12 11:28:36;;;;;;;32.67;12.97;;;;;;;;;;4911737;29;20568;-49
2024/01/12 11:31:02;;;;;;;31.30;12.47;;;;;;;;;;4900673;29;20211;-50
2024/01/12 11:33:28;;;;;;;28.80;12.47;;;;;;;;;;4912555;29;20664;-48
2024/01/12 11:35:54;;;;;;;26.70;11.97;;;;;;;;;;4894015;29;20684;-48
2024/01/12 11:38:20;;;;;;;24.80;10.53;;;;;;;;;;4910360;29;20230;-50
2024/01/12 11:40:50;;;;;;;30.20;13.30;;;;;;;;;;4913668;29;20644;-48
2024/01/12 11:43:20;;;;;;;26.33;11.63;;;;;;;;;;4898539;29;20183;-50
2024/01/12 11:45:47;;;;;;;28.13;10.83;;;;;;;;;;4905095;29;20203;-50
2024/01/12 11:48:16;;;;;;;25.57;10.53;;;;;;;;;;4913458;29;20338;-49
2024/01/12 11:50:42;;;;;;;24.83;11.87;;;;;;;;;;4905528;29;20275;-53
2024/01/12 11:53:08;;;;;;;23.03;10.90;;;;;;;;;;4913470;29;20211;-51
2024/01/12 11:55:38;;;;;;;21.60;9.93;;;;;;;;;;4912502;29;20212;-49
2024/01/12 11:58:04;;;;;;;21.87;10.17;;;;;;;;;;4900046;29;20752;-49
2024/01/12 12:00:30;;;;;;;22.33;9.63;;;;;;;;;;4911358;29;20196;-49
2024/01/12 12:02:56;;;;;;;21.20;9.20;;;;;;;;;;4900989;29;20216;-50
2024/01/12 12:05:22;;;;;;;22.23;10.23;;;;;;;;;;4900992;29;20228;-49
2024/01/12 12:07:48;;;;;;;19.87;8.30;;;;;;;;;;4902146;29;20192;-52
2024/01/12 12:10:14;;;;;;;23.47;9.20;;;;;;;;;;4902127;29;20189;-50
2024/01/12 12:12:40;;;;;;;16.37;7.90;;;;;;;;;;4910225;29;20199;-51
2024/01/12 12:15:07;;;;;;;18.90;8.63;;;;;;;;;;4893668;29;20679;-51
2024/01/12 12:17:37;;;;;;;21.03;8.87;;;;;;;;;;4909609;29;20219;-52
2024/01/12 12:20:10;;;;;;;19.37;8.63;;;;;;;;;;4907631;29;20180;-51
2024/01/12 12:22:36;;;;;;;18.50;8.53;;;;;;;;;;4912751;29;20243;-50
2024/01/12 12:25:02;;;;;;;20.67;8.93;;;;;;;;;;4906960;29;20220;-53
2024/01/12 12:27:28;;;;;;;19.43;8.67;;;;;;;;;;4909588;29;20793;-51
2024/01/12 12:29:54;;;;;;;22.50;9.00;;;;;;;;;;4901939;29;20552;-52
2024/01/12 12:32:21;;;;;;;21.10;8.87;;;;;;;;;;4902195;29;20260;-51
2024/01/12 12:34:47;;;;;;;19.13;8.90;;;;;;;;;;4908772;29;20215;-51
2024/01/12 12:37:13;;;;;;;20.20;9.17;;;;;;;;;;4900689;29;20564;-49
2024/01/12 12:39:40;;;;;;;19.03;9.03;;;;;;;;;;4905094;29;20184;-48
2024/01/12 12:42:06;;;;;;;21.83;9.37;;;;;;;;;;4903671;29;20202;-47
2024/01/12 12:44:33;;;;;;;21.00;8.67;;;;;;;;;;4896537;29;20221;-47
2024/01/12 12:46:59;;;;;;;18.30;9.27;;;;;;;;;;4912799;29;20508;-50
2024/01/12 12:49:39;;;;;;;23.47;9.87;;;;;;;;;;4912612;29;20663;-49
2024/01/12 12:52:05;;;;;;;36.10;13.87;;;;;;;;;;4907038;29;20208;-48
2024/01/12 12:54:31;;;;;;;27.10;11.23;;;;;;;;;;4909100;29;20199;-56
2024/01/12 12:56:58;;;;;;;24.03;9.83;;;;;;;;;;4898303;29;20314;-51
2024/01/12 12:59:25;;;;;;;19.50;9.20;;;;;;;;;;4904641;29;20502;-48
2024/01/12 13:01:51;;;;;;;20.90;8.37;;;;;;;;;;4893872;29;20183;-49
2024/01/12 13:04:17;;;;;;;20.17;8.00;;;;;;;;;;4901101;29;20192;-50
2024/01/12 13:06:44;;;;;;;21.90;9.20;;;;;;;;;;4903707;29;20223;-48
2024/01/12 13:09:10;;;;;;;21.03;8.20;;;;;;;;;;4912866;29;20207;-47
2024/01/12 13:11:37;;;;;;;20.67;8.70;;;;;;;;;;4904757;29;20195;-49
2024/01/12 13:14:05;;;;;;;19.77;8.03;;;;;;;;;;4912666;29;20527;-49
2024/01/12 13:16:31;;;;;;;23.83;9.33;;;;;;;;;;4903972;29;20216;-52
2024/01/12 13:18:57;;;;;;;19.93;8.43;;;;;;;;;;4910829;29;20224;-52
2024/01/12 13:21:23;;;;;;;26.23;9.53;;;;;;;;;;4912930;29;20191;-49
2024/01/12 13:23:49;;;;;;;26.90;9.90;;;;;;;;;;4916128;29;20195;-51
2024/01/12 13:26:15;;;;;;;24.93;10.07;;;;;;;;;;4900701;29;20263;-51
2024/01/12 13:28:41;;;;;;;23.50;9.43;;;;;;;;;;4904932;29;20197;-49
2024/01/12 13:31:07;;;;;;;21.83;9.43;;;;;;;;;;4910902;29;20188;-52
2024/01/12 13:33:33;;;;;;;25.50;9.10;;;;;;;;;;4908321;29;20344;-50
2024/01/12 13:35:59;;;;;;;23.73;9.20;;;;;;;;;;4902494;29;20768;-51
2024/01/12 13:38:25;;;;;;;24.77;9.80;;;;;;;;;;4904675;29;20387;-52
2024/01/12 13:40:51;;;;;;;20.30;7.37;;;;;;;;;;4897277;29;20176;-48
2024/01/12 13:43:17;;;;;;;21.30;8.17;;;;;;;;;;4904496;29;20188;-49
2024/01/12 13:45:43;;;;;;;21.07;8.30;;;;;;;;;;4896738;29;20215;-48
2024/01/12 13:48:11;;;;;;;21.50;8.77;;;;;;;;;;4896782;29;20645;-48
2024/01/12 13:50:37;;;;;;;19.63;7.57;;;;;;;;;;4897389;29;20253;-47
2024/01/12 13:53:03;;;;;;;20.90;7.93;;;;;;;;;;4902078;29;20199;-46
2024/01/12 13:55:29;;;;;;;17.57;7.17;;;;;;;;;;4902330;29;20227;-53
2024/01/12 13:57:55;;;;;;;25.20;7.60;;;;;;;;;;4915664;29;20238;-46
2024/01/12 14:00:21;;;;;;;17.00;7.33;;;;;;;;;;4899993;29;20188;-49
2024/01/12 14:02:49;;;;;;;20.63;6.67;;;;;;;;;;4896719;29;20189;-48
2024/01/12 14:05:15;;;;;;;16.93;6.90;;;;;;;;;;4905910;29;20188;-47
2024/01/12 14:07:42;;;;;;;19.63;7.50;;;;;;;;;;4902294;29;20596;-47
2024/01/12 14:10:08;;;;;;;17.50;6.80;;;;;;;;;;4915369;29;20624;-47
2024/01/12 14:12:35;;;;;;;20.73;7.33;;;;;;;;;;4906066;29;20243;-49
2024/01/12 14:15:01;;;;;;;21.40;8.07;;;;;;;;;;4901184;29;20175;-50
2024/01/12 14:17:27;;;;;;;19.03;7.83;;;;;;;;;;4907143;29;20212;-49